Time;durP1;ratioP1;P1;durP2;ratioP2;P2;SDS_P1;SDS_P2;PMS_P1;PMS_P2;Temp;Humidity;BMP_temperature;BMP_pressure;BME280_temperature;BME280_humidity;BME280_pressure;Samples;Min_cycle;Max_cycle;Signal;HPM_P1;HPM_P2
2023/01/25 00:01:31;;;;;;;30.30;18.33;;;2.60;93.50;;;;;;5054570;28;20473;-81
2023/01/25 00:03:57;;;;;;;28.43;17.07;;;2.60;93.60;;;;;;5054476;28;20403;-82
2023/01/25 00:06:23;;;;;;;30.83;18.73;;;2.60;93.70;;;;;;5054583;28;20033;-82
2023/01/25 00:08:52;;;;;;;27.87;18.00;;;2.60;93.70;;;;;;5054335;28;20521;-81
2023/01/25 00:11:18;;;;;;;30.10;18.30;;;2.60;93.70;;;;;;5038135;28;20032;-80
2023/01/25 00:13:45;;;;;;;29.93;18.20;;;2.60;93.70;;;;;;5038434;28;20033;-80
2023/01/25 00:16:11;;;;;;;32.03;19.20;;;2.60;93.70;;;;;;5054595;28;20048;-80
2023/01/25 00:18:36;;;;;;;29.70;18.73;;;2.50;93.70;;;;;;5054333;28;20075;-80
2023/01/25 00:21:17;;;;;;;29.57;19.07;;;2.60;93.70;;;;;;5054431;28;20025;-80
2023/01/25 00:23:42;;;;;;;31.93;18.90;;;2.60;93.70;;;;;;5055326;28;20461;-80
2023/01/25 00:26:08;;;;;;;33.00;19.47;;;2.60;93.60;;;;;;5055858;28;20032;-80
2023/01/25 00:28:34;;;;;;;27.90;18.07;;;2.60;93.70;;;;;;5054135;28;20103;-80
2023/01/25 00:31:01;;;;;;;31.83;19.10;;;2.50;93.60;;;;;;5054355;28;20029;-80
2023/01/25 00:33:36;;;;;;;28.43;17.23;;;2.50;93.60;;;;;;5055286;28;20473;-80
2023/01/25 00:36:20;;;;;;;29.10;18.07;;;2.50;93.60;;;;;;5053417;28;20025;-81
2023/01/25 00:38:46;;;;;;;22.90;14.30;;;2.50;93.60;;;;;;5054130;28;20021;-80
2023/01/25 00:41:12;;;;;;;28.60;17.80;;;2.50;93.60;;;;;;5054167;28;20151;-80
2023/01/25 00:43:38;;;;;;;29.20;18.00;;;2.50;93.70;;;;;;5037600;28;20037;-80
2023/01/25 00:46:03;;;;;;;28.93;18.50;;;2.40;93.70;;;;;;5055322;28;20033;-80
2023/01/25 00:48:29;;;;;;;30.00;18.03;;;2.50;93.70;;;;;;5037316;28;20469;-80
2023/01/25 00:51:02;;;;;;;29.10;18.63;;;2.50;93.70;;;;;;5020942;28;20047;-81
2023/01/25 00:53:28;;;;;;;28.23;17.47;;;2.50;93.80;;;;;;5054009;28;20112;-81
2023/01/25 00:55:53;;;;;;;29.33;18.20;;;2.50;93.70;;;;;;5054159;28;20063;-80
2023/01/25 00:58:19;;;;;;;31.03;18.53;;;2.60;93.80;;;;;;5020764;28;20032;-81
2023/01/25 01:00:44;;;;;;;31.37;20.17;;;2.50;93.70;;;;;;5036670;28;20032;-81
2023/01/25 01:03:10;;;;;;;30.17;18.63;;;2.50;93.70;;;;;;5053186;28;20025;-81
2023/01/25 01:05:36;;;;;;;29.17;16.93;;;2.50;93.70;;;;;;5020275;28;20803;-81
2023/01/25 01:08:02;;;;;;;30.73;18.43;;;2.50;93.80;;;;;;5036907;28;20074;-81
2023/01/25 01:10:28;;;;;;;32.50;20.17;;;2.40;93.80;;;;;;5037451;28;20417;-81
2023/01/25 01:12:54;;;;;;;31.77;19.07;;;2.40;93.80;;;;;;5053592;28;20094;-80
2023/01/25 01:15:19;;;;;;;31.67;18.63;;;2.40;93.80;;;;;;5053285;28;20028;-80
2023/01/25 01:17:45;;;;;;;29.83;18.17;;;2.30;93.80;;;;;;5036282;28;20029;-80
2023/01/25 01:20:11;;;;;;;31.37;18.67;;;2.50;93.90;;;;;;5053530;28;20102;-81
2023/01/25 01:22:37;;;;;;;29.67;19.07;;;2.40;93.90;;;;;;5053635;28;20576;-81
2023/01/25 01:25:03;;;;;;;30.27;18.93;;;2.40;94.00;;;;;;5052962;28;20127;-81
2023/01/25 01:27:28;;;;;;;29.70;18.37;;;2.40;94.00;;;;;;5053345;28;20033;-81
2023/01/25 01:29:54;;;;;;;29.93;18.67;;;2.40;94.00;;;;;;5036109;28;20029;-81
2023/01/25 01:32:19;;;;;;;29.53;19.37;;;2.40;93.90;;;;;;5036610;28;20037;-80
2023/01/25 01:34:45;;;;;;;31.27;19.70;;;2.40;93.90;;;;;;5036268;28;20075;-80
2023/01/25 01:37:11;;;;;;;33.07;20.67;;;2.40;93.90;;;;;;5036566;28;20032;-81
2023/01/25 01:39:37;;;;;;;33.43;20.47;;;2.40;93.80;;;;;;5052503;28;20435;-81
2023/01/25 01:42:03;;;;;;;33.40;20.13;;;2.40;93.80;;;;;;5054446;28;20037;-80
2023/01/25 01:44:51;;;;;;;30.03;18.07;;;2.30;94.00;;;;;;5036276;28;20060;-81
2023/01/25 01:47:31;;;;;;;30.50;19.60;;;2.30;93.80;;;;;;5052714;28;20485;-81
2023/01/25 01:50:03;;;;;;;31.90;18.70;;;2.30;93.80;;;;;;5052692;28;20039;-80
2023/01/25 01:52:34;;;;;;;31.13;18.63;;;2.30;93.80;;;;;;5053601;28;20124;-80
2023/01/25 01:55:14;;;;;;;30.80;18.53;;;2.30;93.90;;;;;;5052503;28;20416;-80
2023/01/25 01:57:49;;;;;;;27.10;16.57;;;2.30;93.90;;;;;;5052885;28;20040;-80
2023/01/25 02:00:22;;;;;;;30.43;19.23;;;2.30;93.80;;;;;;5052630;28;20440;-80
2023/01/25 02:02:49;;;;;;;29.20;18.65;;;2.20;93.90;;;;;;5052666;28;20025;-80
2023/01/25 02:05:27;;;;;;;29.53;19.10;;;2.30;93.90;;;;;;5051818;28;20500;-80
2023/01/25 02:07:54;;;;;;;31.77;19.50;;;2.30;93.90;;;;;;5052226;28;20477;-80
2023/01/25 02:10:22;;;;;;;32.83;18.83;;;2.30;93.80;;;;;;5052318;28;20021;-80
2023/01/25 02:12:48;;;;;;;30.77;19.13;;;2.30;93.90;;;;;;5051541;28;20017;-80
2023/01/25 02:15:14;;;;;;;33.67;19.83;;;2.30;93.80;;;;;;5052170;28;20373;-80
2023/01/25 02:17:41;;;;;;;30.50;18.27;;;2.30;93.80;;;;;;5051949;28;20032;-80
2023/01/25 02:20:31;;;;;;;31.00;18.93;;;2.30;93.80;;;;;;5035476;28;20093;-80
2023/01/25 02:23:05;;;;;;;29.23;18.00;;;2.20;93.80;;;;;;5051997;28;20021;-80
2023/01/25 02:25:31;;;;;;;;;;;2.30;93.80;;;;;;5052390;28;20366;-80
2023/01/25 02:28:05;;;;;;;30.17;17.83;;;2.20;93.80;;;;;;5053179;28;19919;-80
2023/01/25 02:30:32;;;;;;;33.10;20.43;;;2.30;93.80;;;;;;5051829;28;20373;-80
2023/01/25 02:32:58;;;;;;;31.50;18.67;;;2.20;93.80;;;;;;5035437;28;20056;-80
2023/01/25 02:35:55;;;;;;;32.00;18.63;;;2.20;93.70;;;;;;5034994;28;20063;-80
2023/01/25 02:38:20;;;;;;;30.40;18.00;;;2.20;93.80;;;;;;5052029;28;20024;-80
2023/01/25 02:41:01;;;;;;;32.60;19.37;;;2.10;93.80;;;;;;5035111;28;20567;-81
2023/01/25 02:43:29;;;;;;;30.97;18.27;;;2.20;93.90;;;;;;5053126;28;20090;-80
2023/01/25 02:46:04;;;;;;;30.57;18.33;;;2.10;93.90;;;;;;5051578;28;20020;-80
2023/01/25 02:48:29;;;;;;;28.23;18.53;;;2.10;93.90;;;;;;5051636;28;20021;-79
2023/01/25 02:50:55;;;;;;;29.37;17.17;;;2.20;94.00;;;;;;5051625;28;20039;-80
2023/01/25 02:53:21;;;;;;;36.83;19.30;;;2.30;94.00;;;;;;5051857;28;20064;-81
2023/01/25 02:55:46;;;;;;;30.03;18.50;;;2.10;93.90;;;;;;5053031;28;20094;-81
2023/01/25 02:58:12;;;;;;;30.70;18.67;;;2.20;93.90;;;;;;5035121;28;20029;-81
2023/01/25 03:00:37;;;;;;;37.00;22.30;;;2.20;93.90;;;;;;5051710;28;20044;-81
2023/01/25 03:03:03;;;;;;;33.03;19.43;;;2.20;93.80;;;;;;5051434;28;20026;-81
2023/01/25 03:05:29;;;;;;;29.20;17.93;;;2.20;93.80;;;;;;5034432;28;20508;-81
2023/01/25 03:07:54;;;;;;;33.23;20.23;;;2.10;93.80;;;;;;5035015;28;20488;-82
2023/01/25 03:10:20;;;;;;;30.50;18.43;;;2.10;93.90;;;;;;5051651;28;20128;-81
2023/01/25 03:12:45;;;;;;;35.57;20.00;;;2.20;94.00;;;;;;5035030;28;20028;-81
2023/01/25 03:15:11;;;;;;;34.13;21.10;;;2.20;93.90;;;;;;5051244;28;20017;-81
2023/01/25 03:17:37;;;;;;;31.63;19.90;;;2.10;93.80;;;;;;5034846;28;20068;-81
2023/01/25 03:20:02;;;;;;;30.53;19.37;;;2.10;93.70;;;;;;5034886;28;20037;-81
2023/01/25 03:22:28;;;;;;;33.07;19.33;;;2.10;93.80;;;;;;5052086;28;20061;-81
2023/01/25 03:24:53;;;;;;;31.83;18.37;;;2.00;93.70;;;;;;5022149;28;20033;-81
2023/01/25 03:27:19;;;;;;;32.30;19.57;;;2.00;93.80;;;;;;5055203;28;20111;-81
2023/01/25 03:29:45;;;;;;;34.33;19.50;;;1.90;93.80;;;;;;5038842;28;20136;-81
2023/01/25 03:32:11;;;;;;;34.10;19.97;;;1.90;93.90;;;;;;5056376;28;20037;-80
2023/01/25 03:34:36;;;;;;;32.87;20.23;;;2.00;94.00;;;;;;5055137;28;20025;-80
2023/01/25 03:37:02;;;;;;;34.23;19.40;;;2.00;93.90;;;;;;5038684;28;20029;-80
2023/01/25 03:39:28;;;;;;;31.17;19.00;;;1.90;93.80;;;;;;5056857;28;20381;-81
2023/01/25 03:41:54;;;;;;;33.63;20.37;;;1.90;93.90;;;;;;5022310;28;20389;-81
2023/01/25 03:44:19;;;;;;;34.53;20.23;;;1.90;93.90;;;;;;5038644;28;20496;-81
2023/01/25 03:46:45;;;;;;;35.47;19.67;;;1.90;93.90;;;;;;5038367;28;20032;-80
2023/01/25 03:49:11;;;;;;;33.03;19.53;;;1.90;94.00;;;;;;5038312;28;20033;-81
2023/01/25 03:51:37;;;;;;;33.77;19.27;;;1.80;94.10;;;;;;5054637;28;20386;-81
2023/01/25 03:54:04;;;;;;;33.73;19.43;;;1.90;94.10;;;;;;5038282;28;20500;-81
2023/01/25 03:56:29;;;;;;;33.30;19.97;;;1.90;94.20;;;;;;5055120;28;20067;-80
2023/01/25 03:58:55;;;;;;;33.67;19.90;;;1.90;94.50;;;;;;5038140;28;20118;-80
2023/01/25 04:01:21;;;;;;;33.73;19.77;;;1.90;94.30;;;;;;5038243;28;20064;-81
2023/01/25 04:03:46;;;;;;;36.20;20.90;;;1.90;94.30;;;;;;5038227;28;20047;-80
2023/01/25 04:06:12;;;;;;;33.33;19.93;;;1.90;94.30;;;;;;5037375;28;20121;-80
2023/01/25 04:08:37;;;;;;;29.27;18.57;;;2.00;94.30;;;;;;5021334;28;20033;-80
2023/01/25 04:11:06;;;;;;;30.60;18.83;;;2.00;94.40;;;;;;5037943;28;20081;-80
2023/01/25 04:13:35;;;;;;;36.40;21.47;;;2.00;94.40;;;;;;5054143;28;20028;-81
2023/01/25 04:16:02;;;;;;;34.83;20.90;;;2.00;94.30;;;;;;5037927;28;20029;-82
2023/01/25 04:18:28;;;;;;;34.73;22.20;;;2.00;94.30;;;;;;5037716;28;20429;-81
2023/01/25 04:20:55;;;;;;;35.27;20.77;;;2.10;94.30;;;;;;5021298;28;20056;-81
2023/01/25 04:23:22;;;;;;;36.97;23.10;;;2.00;94.20;;;;;;5055375;28;20381;-81
2023/01/25 04:26:04;;;;;;;35.63;21.73;;;2.00;94.20;;;;;;5055299;28;20511;-82
2023/01/25 04:28:30;;;;;;;37.63;20.73;;;2.00;94.10;;;;;;5054444;28;20031;-82
2023/01/25 04:30:56;;;;;;;34.53;20.80;;;1.90;94.10;;;;;;5054937;28;20477;-81
2023/01/25 04:33:22;;;;;;;33.80;21.13;;;1.90;94.10;;;;;;5045625;28;20112;-82
2023/01/25 04:35:48;;;;;;;34.33;21.10;;;1.90;94.50;;;;;;5026874;28;20033;-81
2023/01/25 04:38:14;;;;;;;36.50;21.00;;;1.90;94.10;;;;;;5001503;28;20021;-81
2023/01/25 04:40:40;;;;;;;36.87;21.70;;;1.80;94.10;;;;;;5035259;28;20492;-81
2023/01/25 04:43:06;;;;;;;38.63;22.67;;;1.80;94.10;;;;;;5039245;28;20396;-82
2023/01/25 04:45:32;;;;;;;38.83;22.60;;;1.80;94.10;;;;;;5069663;28;20033;-82
2023/01/25 04:48:02;;;;;;;40.53;24.03;;;1.80;94.10;;;;;;5052869;28;20025;-81
2023/01/25 04:50:28;;;;;;;37.67;22.87;;;1.80;94.10;;;;;;5054047;28;20028;-81
2023/01/25 04:52:53;;;;;;;39.03;23.37;;;1.80;94.10;;;;;;5053460;28;20049;-80
2023/01/25 04:55:19;;;;;;;38.77;22.77;;;1.80;94.10;;;;;;5053437;28;20037;-81
2023/01/25 04:57:49;;;;;;;40.67;22.20;;;1.80;94.10;;;;;;5054806;28;20036;-81
2023/01/25 05:00:15;;;;;;;37.47;22.63;;;1.70;94.10;;;;;;5052543;28;20112;-81
2023/01/25 05:02:41;;;;;;;41.20;23.87;;;1.80;94.10;;;;;;5020355;28;20047;-81
2023/01/25 05:05:07;;;;;;;39.00;22.07;;;1.80;94.10;;;;;;5036743;28;20045;-81
2023/01/25 05:07:33;;;;;;;39.63;22.60;;;1.70;94.10;;;;;;5054144;28;20029;-81
2023/01/25 05:09:58;;;;;;;39.00;22.27;;;1.70;94.20;;;;;;5062275;28;20056;-81
2023/01/25 05:12:24;;;;;;;38.93;21.63;;;1.70;94.10;;;;;;5044658;28;20039;-81
2023/01/25 05:14:50;;;;;;;41.10;23.33;;;1.80;94.20;;;;;;5054976;28;20063;-81
2023/01/25 05:17:15;;;;;;;38.10;22.50;;;1.60;94.10;;;;;;5039322;28;20030;-81
2023/01/25 05:19:41;;;;;;;37.77;23.13;;;1.70;94.20;;;;;;5033137;28;20030;-81
2023/01/25 05:22:11;;;;;;;40.33;24.00;;;1.70;94.20;;;;;;5015118;28;20044;-81
2023/01/25 05:24:40;;;;;;;39.43;22.33;;;1.70;94.10;;;;;;5033319;28;20043;-82
2023/01/25 05:27:06;;;;;;;36.10;21.77;;;1.70;94.10;;;;;;5034714;28;20462;-81
2023/01/25 05:29:35;;;;;;;42.53;25.43;;;1.70;94.10;;;;;;5016650;28;20036;-80
2023/01/25 05:32:21;;;;;;;42.80;24.87;;;1.70;94.20;;;;;;5032549;28;20022;-81
2023/01/25 05:34:47;;;;;;;44.30;24.27;;;1.70;94.30;;;;;;5032802;28;20018;-81
2023/01/25 05:37:15;;;;;;;40.77;23.30;;;1.70;94.10;;;;;;5032884;28;20120;-81
2023/01/25 05:39:41;;;;;;;39.83;22.80;;;1.60;94.20;;;;;;5032952;28;20086;-80
2023/01/25 05:42:15;;;;;;;40.50;22.87;;;1.60;94.20;;;;;;5033558;28;20549;-80
2023/01/25 05:44:41;;;;;;;39.37;24.03;;;1.60;94.30;;;;;;5033182;28;20406;-80
2023/01/25 05:47:12;;;;;;;38.83;22.30;;;1.60;94.30;;;;;;5033492;28;20029;-82
2023/01/25 05:49:37;;;;;;;39.17;22.63;;;1.60;94.30;;;;;;5033304;28;20106;-83
2023/01/25 05:52:03;;;;;;;42.17;22.63;;;1.60;94.40;;;;;;5032619;28;20548;-82
2023/01/25 05:54:29;;;;;;;39.43;22.47;;;1.60;94.50;;;;;;5016178;28;20037;-82
2023/01/25 05:56:54;;;;;;;39.10;22.70;;;1.60;94.50;;;;;;5033357;28;20048;-81
2023/01/25 05:59:20;;;;;;;42.00;24.17;;;1.60;94.40;;;;;;5016216;28;20029;-81
2023/01/25 06:01:46;;;;;;;40.93;22.53;;;1.50;94.30;;;;;;5032794;28;20088;-82
2023/01/25 06:04:14;;;;;;;42.53;24.60;;;1.50;94.30;;;;;;5015979;28;20050;-82
2023/01/25 06:06:40;;;;;;;42.30;24.13;;;1.60;94.50;;;;;;5031947;28;20385;-82
2023/01/25 06:09:06;;;;;;;38.67;22.97;;;1.60;94.50;;;;;;5032679;28;20022;-82
2023/01/25 06:11:32;;;;;;;42.07;24.77;;;1.60;94.50;;;;;;5016102;28;20033;-82
2023/01/25 06:13:57;;;;;;;44.83;26.03;;;1.60;94.60;;;;;;5015849;28;20120;-81
2023/01/25 06:16:23;;;;;;;44.60;25.93;;;1.60;94.60;;;;;;5015665;28;20028;-81
2023/01/25 06:18:49;;;;;;;46.93;26.67;;;1.70;94.60;;;;;;5033306;28;20029;-81
2023/01/25 06:21:15;;;;;;;46.30;26.50;;;1.70;94.60;;;;;;5032326;28;20165;-81
2023/01/25 06:23:40;;;;;;;47.07;26.73;;;1.60;94.80;;;;;;5015532;28;20033;-81
2023/01/25 06:26:10;;;;;;;44.37;26.43;;;1.70;94.60;;;;;;5015567;28;20394;-80
2023/01/25 06:28:36;;;;;;;45.27;26.17;;;1.70;94.50;;;;;;5031845;28;20018;-80
2023/01/25 06:31:07;;;;;;;47.67;25.20;;;1.70;94.50;;;;;;5032909;28;20592;-81
2023/01/25 06:33:33;;;;;;;43.83;24.43;;;1.60;94.50;;;;;;5031911;28;20071;-81
2023/01/25 06:36:05;;;;;;;45.33;26.50;;;1.60;94.50;;;;;;5031249;28;20485;-80
2023/01/25 06:38:31;;;;;;;44.47;25.30;;;1.50;94.60;;;;;;5031845;28;20017;-81
2023/01/25 06:41:02;;;;;;;49.50;28.10;;;1.50;94.60;;;;;;5015608;28;20473;-81
2023/01/25 06:43:28;;;;;;;51.30;28.27;;;1.50;94.60;;;;;;5031988;28;20128;-81
2023/01/25 06:45:58;;;;;;;47.33;25.97;;;1.40;94.50;;;;;;5031913;28;20044;-80
2023/01/25 06:48:24;;;;;;;46.67;26.43;;;1.40;94.60;;;;;;5031829;28;20036;-80
2023/01/25 06:50:58;;;;;;;47.27;25.73;;;1.40;94.90;;;;;;5015506;28;20075;-80
2023/01/25 06:53:29;;;;;;;47.88;25.95;;;1.40;94.70;;;;;;5032842;28;20095;-80
2023/01/25 06:56:10;;;;;;;46.20;25.47;;;1.40;94.70;;;;;;5031565;28;20108;-80
2023/01/25 06:58:37;;;;;;;43.63;24.47;;;1.30;94.60;;;;;;5031170;28;20026;-80
2023/01/25 07:01:06;;;;;;;48.73;25.80;;;1.30;94.70;;;;;;5033102;28;20053;-81
2023/01/25 07:03:33;;;;;;;51.23;27.40;;;1.20;94.60;;;;;;5033027;28;20091;-79
2023/01/25 07:06:00;;;;;;;48.23;27.10;;;1.30;94.60;;;;;;5031317;28;20080;-79
2023/01/25 07:08:26;;;;;;;47.93;27.00;;;1.30;94.70;;;;;;5015367;28;20033;-80
2023/01/25 07:10:57;;;;;;;48.77;27.17;;;1.50;94.70;;;;;;5031680;28;20053;-79
2023/01/25 07:13:24;;;;;;;48.40;25.43;;;1.30;94.60;;;;;;5015309;28;20022;-78
2023/01/25 07:15:58;;;;;;;50.37;26.80;;;1.30;94.70;;;;;;5014636;28;20474;-80
2023/01/25 07:18:25;;;;;;;48.53;26.48;;;1.30;94.80;;;;;;5031499;28;20478;-79
2023/01/25 07:20:51;;;;;;;51.07;26.77;;;1.20;94.80;;;;;;5031954;28;20044;-79
2023/01/25 07:23:17;;;;;;;46.07;24.53;;;1.30;94.80;;;;;;5033033;28;20033;-80
2023/01/25 07:25:49;;;;;;;47.57;25.30;;;1.20;94.80;;;;;;5031543;28;20037;-80
2023/01/25 07:28:16;;;;;;;45.37;24.90;;;1.20;94.90;;;;;;5036419;28;20037;-81
2023/01/25 07:30:42;;;;;;;49.13;25.67;;;1.20;94.90;;;;;;5038605;28;20029;-81
2023/01/25 07:33:09;;;;;;;50.33;27.27;;;1.20;95.00;;;;;;5051853;28;20028;-80
2023/01/25 07:35:35;;;;;;;49.57;26.97;;;1.30;95.00;;;;;;5041642;28;20029;-80
2023/01/25 07:38:01;;;;;;;49.93;26.43;;;1.30;95.00;;;;;;5039557;28;20021;-80
2023/01/25 07:40:26;;;;;;;50.90;27.57;;;1.30;94.90;;;;;;5041652;28;20120;-81
2023/01/25 07:42:52;;;;;;;49.13;26.47;;;1.30;94.90;;;;;;5031827;28;20047;-81
2023/01/25 07:45:18;;;;;;;49.80;26.27;;;1.20;94.90;;;;;;5040208;28;20496;-81
2023/01/25 07:47:44;;;;;;;50.17;27.10;;;1.20;94.90;;;;;;5041362;28;20390;-81
2023/01/25 07:50:10;;;;;;;51.87;27.03;;;1.20;94.90;;;;;;5041525;28;20064;-80
2023/01/25 07:52:36;;;;;;;55.13;26.73;;;1.10;95.00;;;;;;5039876;28;20567;-81
2023/01/25 07:55:02;;;;;;;52.90;27.43;;;1.10;95.00;;;;;;5042548;28;20025;-80
2023/01/25 07:57:27;;;;;;;50.87;26.97;;;1.10;95.10;;;;;;5041372;28;20021;-80
2023/01/25 07:59:53;;;;;;;50.77;27.77;;;1.20;95.20;;;;;;5041415;28;20095;-81
2023/01/25 08:02:19;;;;;;;48.20;25.33;;;1.10;95.20;;;;;;5031187;28;20031;-80
2023/01/25 08:04:45;;;;;;;50.77;26.00;;;1.10;95.20;;;;;;5040885;28;20056;-81
2023/01/25 08:07:11;;;;;;;47.63;25.70;;;1.10;95.20;;;;;;5022846;28;20022;-81
2023/01/25 08:09:37;;;;;;;49.33;26.50;;;1.10;95.30;;;;;;5042490;28;20029;-81
2023/01/25 08:12:03;;;;;;;54.33;27.00;;;1.10;95.30;;;;;;5040956;28;20102;-81
2023/01/25 08:14:29;;;;;;;52.97;27.23;;;1.10;95.40;;;;;;5028522;28;20488;-81
2023/01/25 08:16:54;;;;;;;52.47;26.37;;;1.10;95.30;;;;;;5020704;28;20529;-80
2023/01/25 08:19:21;;;;;;;49.63;24.77;;;1.10;95.40;;;;;;5017992;28;20022;-81
2023/01/25 08:21:46;;;;;;;56.03;29.13;;;1.20;95.40;;;;;;5017825;28;20037;-81
2023/01/25 08:24:12;;;;;;;55.37;29.20;;;1.20;95.40;;;;;;5017875;28;20049;-80
2023/01/25 08:26:38;;;;;;;55.83;30.23;;;1.20;95.40;;;;;;5033951;28;20134;-80
2023/01/25 08:29:06;;;;;;;55.07;29.40;;;1.20;95.40;;;;;;5020645;28;20029;-80
2023/01/25 08:31:33;;;;;;;55.03;28.93;;;1.20;95.40;;;;;;5055263;28;20037;-80
2023/01/25 08:34:00;;;;;;;52.67;27.60;;;1.20;95.30;;;;;;5051088;28;20022;-80
2023/01/25 08:36:29;;;;;;;53.17;28.03;;;1.20;95.40;;;;;;5044385;28;20029;-81
2023/01/25 08:38:57;;;;;;;53.80;28.07;;;1.20;95.40;;;;;;5036572;28;20036;-80
2023/01/25 08:41:28;;;;;;;55.43;29.70;;;1.10;95.40;;;;;;5034365;28;20026;-80
2023/01/25 08:43:55;;;;;;;55.43;28.20;;;1.20;95.50;;;;;;5016901;28;20033;-81
2023/01/25 08:46:21;;;;;;;53.03;27.03;;;1.10;95.40;;;;;;5033804;28;20021;-80
2023/01/25 08:48:51;;;;;;;52.07;27.30;;;1.10;95.50;;;;;;5017360;28;20382;-81
2023/01/25 08:51:17;;;;;;;55.90;29.17;;;1.10;95.60;;;;;;5034283;28;20485;-80
2023/01/25 08:53:43;;;;;;;58.97;29.00;;;1.20;95.60;;;;;;5034207;28;20061;-80
2023/01/25 08:56:14;;;;;;;51.63;26.37;;;1.20;95.50;;;;;;5017684;28;20071;-80
2023/01/25 08:58:43;;;;;;;50.60;27.13;;;1.20;95.50;;;;;;5035212;28;20036;-81
2023/01/25 09:01:12;;;;;;;49.30;26.30;;;1.20;95.50;;;;;;5035241;28;20422;-80
2023/01/25 09:03:42;;;;;;;52.60;26.43;;;1.20;95.50;;;;;;5033939;28;20195;-80
2023/01/25 09:06:08;;;;;;;49.93;26.23;;;1.30;95.60;;;;;;5017557;28;20075;-80
2023/01/25 09:08:36;;;;;;;56.33;28.03;;;1.10;95.50;;;;;;5033956;28;20026;-80
2023/01/25 09:11:07;;;;;;;52.50;26.43;;;1.20;95.60;;;;;;5033420;28;20539;-80
2023/01/25 09:13:33;;;;;;;49.77;26.63;;;1.20;95.70;;;;;;5035508;28;20025;-80
2023/01/25 09:16:04;;;;;;;53.00;27.83;;;1.20;95.80;;;;;;5033547;28;20500;-80
2023/01/25 09:18:30;;;;;;;50.90;26.40;;;1.30;95.80;;;;;;5017863;28;20021;-80
2023/01/25 09:20:57;;;;;;;54.03;27.93;;;1.30;95.70;;;;;;5032904;28;20048;-80
2023/01/25 09:23:23;;;;;;;55.07;27.73;;;1.30;95.80;;;;;;5034457;28;20045;-80
2023/01/25 09:25:56;;;;;;;55.00;26.97;;;1.30;95.80;;;;;;5036178;28;20026;-80
2023/01/25 09:28:22;;;;;;;41.22;21.02;;;1.30;95.80;;;;;;5043445;28;20022;-80
2023/01/25 09:30:59;;;;;;;51.07;27.27;;;1.40;95.70;;;;;;5041745;28;20477;-80
2023/01/25 09:33:32;;;;;;;57.90;29.23;;;1.30;95.70;;;;;;5041427;28;20018;-80
2023/01/25 09:35:58;;;;;;;54.05;28.55;;;1.30;95.60;;;;;;5061890;28;20017;-80
2023/01/25 09:38:24;;;;;;;58.27;30.13;;;1.30;95.60;;;;;;5039263;28;20466;-80
2023/01/25 09:40:53;;;;;;;59.03;30.70;;;1.30;95.60;;;;;;5032691;28;20078;-80
2023/01/25 09:44:00;;;;;;;56.37;28.63;;;1.30;95.60;;;;;;5033215;28;20044;-80
2023/01/25 09:46:28;;;;;;;58.40;29.83;;;1.30;95.70;;;;;;5032025;28;20041;-81
2023/01/25 09:49:33;;;;;;;52.53;26.60;;;1.20;95.70;;;;;;5047896;28;20100;-80
2023/01/25 09:52:35;;;;;;;52.60;26.65;;;1.20;95.80;;;;;;5032921;28;20052;-80
2023/01/25 09:55:02;;;;;;;51.50;26.67;;;1.20;95.80;;;;;;5029716;28;20034;-80
2023/01/25 09:57:36;;;;;;;54.17;27.83;;;1.30;95.90;;;;;;5033183;28;20112;-80
2023/01/25 10:00:14;;;;;;;50.97;26.20;;;1.30;95.90;;;;;;5033342;28;20033;-80
2023/01/25 10:03:03;;;;;;;54.47;28.10;;;1.30;95.70;;;;;;5037728;28;20029;-80
2023/01/25 10:05:36;;;;;;;52.13;27.33;;;1.30;95.90;;;;;;5041737;28;20456;-80
2023/01/25 10:08:16;;;;;;;56.83;29.17;;;1.30;95.70;;;;;;5037958;28;20025;-80
2023/01/25 10:10:43;;;;;;;60.73;30.20;;;1.30;95.80;;;;;;5035562;28;20024;-80
2023/01/25 10:13:22;;;;;;;54.40;28.63;;;1.30;95.80;;;;;;5017171;28;20032;-80
2023/01/25 10:16:20;;;;;;;58.30;29.33;;;1.40;95.80;;;;;;5033083;28;20026;-80
2023/01/25 10:18:59;;;;;;;57.90;29.37;;;1.30;95.70;;;;;;5032645;28;20025;-80
2023/01/25 10:21:46;;;;;;;53.97;27.87;;;1.30;95.70;;;;;;5032863;28;20047;-80
2023/01/25 10:24:29;;;;;;;56.13;28.33;;;1.30;95.80;;;;;;5032239;28;20486;-80
2023/01/25 10:26:57;;;;;;;54.60;28.67;;;1.30;95.80;;;;;;5032650;28;20025;-80
2023/01/25 10:29:30;;;;;;;53.70;27.57;;;1.40;95.90;;;;;;5033518;28;20100;-80
2023/01/25 10:32:19;;;;;;;55.43;28.13;;;1.40;95.90;;;;;;5032825;28;20029;-80
2023/01/25 10:34:47;;;;;;;60.03;30.07;;;1.40;95.90;;;;;;5046846;28;20485;-80
2023/01/25 10:37:23;;;;;;;60.90;31.07;;;1.40;95.80;;;;;;5051998;28;20436;-80
2023/01/25 10:40:22;;;;;;;54.27;27.57;;;1.50;95.80;;;;;;5052094;28;20040;-81
2023/01/25 10:42:55;;;;;;;55.80;28.63;;;1.50;95.80;;;;;;5051699;28;20060;-80
2023/01/25 10:45:21;;;;;;;55.90;30.13;;;1.50;95.80;;;;;;5052008;28;20033;-80
2023/01/25 10:47:51;;;;;;;57.03;29.27;;;1.50;95.80;;;;;;5051761;28;20074;-81
2023/01/25 10:50:42;;;;;;;57.97;29.97;;;1.50;95.80;;;;;;5052136;28;20259;-80
2023/01/25 10:53:33;;;;;;;58.07;29.37;;;1.50;95.80;;;;;;5040039;28;20044;-80
2023/01/25 10:55:59;;;;;;;58.20;29.23;;;1.50;95.90;;;;;;5034464;28;20025;-81
2023/01/25 10:58:30;;;;;;;55.80;29.20;;;1.50;95.90;;;;;;5032811;28;20378;-80
2023/01/25 11:00:56;;;;;;;56.43;29.40;;;1.50;95.90;;;;;;5031768;28;20382;-80
2023/01/25 11:03:22;;;;;;;66.10;32.77;;;1.60;95.90;;;;;;5015007;28;20037;-80
2023/01/25 11:05:55;;;;;;;56.90;29.63;;;1.60;95.90;;;;;;5015039;28;20064;-80
2023/01/25 11:08:31;;;;;;;59.92;30.33;;;1.60;95.80;;;;;;5041654;28;20032;-80
2023/01/25 11:10:58;;;;;;;65.73;33.93;;;1.60;95.80;;;;;;5050500;28;20450;-80
2023/01/25 11:13:31;;;;;;;62.20;32.70;;;1.70;95.70;;;;;;5051648;28;20025;-80
2023/01/25 11:16:00;;;;;;;48.10;24.35;;;1.60;95.70;;;;;;5052394;28;20047;-80
2023/01/25 11:18:33;;;;;;;67.90;34.67;;;1.60;95.80;;;;;;5052987;28;20055;-79
2023/01/25 11:21:11;;;;;;;67.40;34.35;;;1.50;95.60;;;;;;5051421;28;20083;-80
2023/01/25 11:23:37;;;;;;;65.57;33.00;;;1.50;95.60;;;;;;5047851;28;20017;-80
2023/01/25 11:26:17;;;;;;;69.13;34.23;;;1.50;95.60;;;;;;5040673;28;20112;-80
2023/01/25 11:28:44;;;;;;;60.03;30.93;;;1.50;95.60;;;;;;5043250;28;20033;-81
2023/01/25 11:31:12;;;;;;;64.13;32.60;;;1.50;95.60;;;;;;5046896;28;20053;-81
2023/01/25 11:33:39;;;;;;;63.70;31.77;;;1.50;95.60;;;;;;5068294;28;20125;-81
2023/01/25 11:36:30;;;;;;;64.43;31.87;;;1.40;95.70;;;;;;5051090;28;20021;-81
2023/01/25 11:39:23;;;;;;;69.57;34.83;;;1.50;96.00;;;;;;5043334;28;20025;-80
2023/01/25 11:42:07;;;;;;;67.30;33.50;;;1.50;95.80;;;;;;5031527;28;20371;-81
2023/01/25 11:44:42;;;;;;;65.20;33.03;;;1.50;95.90;;;;;;5033486;28;20045;-81
2023/01/25 11:47:23;;;;;;;65.80;33.10;;;1.50;95.90;;;;;;5035760;28;20079;-81
2023/01/25 11:50:17;;;;;;;71.43;36.67;;;1.60;95.90;;;;;;5036813;28;20022;-80
2023/01/25 11:53:39;;;;;;;67.85;35.35;;;1.60;95.80;;;;;;5037153;28;20125;-80
2023/01/25 11:56:36;;;;;;;63.87;32.77;;;1.50;95.70;;;;;;4989603;28;20039;-80
2023/01/25 11:59:25;;;;;;;66.33;32.17;;;1.50;95.80;;;;;;4979069;28;20030;-80
2023/01/25 12:02:18;;;;;;;63.60;32.87;;;1.50;95.90;;;;;;5032461;28;20061;-80
2023/01/25 12:05:23;;;;;;;70.60;34.97;;;1.50;95.90;;;;;;5038654;28;20120;-80
2023/01/25 12:08:11;;;;;;;65.60;33.47;;;1.60;95.90;;;;;;5010348;28;20174;-80
2023/01/25 12:10:49;;;;;;;61.60;31.83;;;1.60;95.90;;;;;;5037613;28;20084;-80
2023/01/25 12:14:00;;;;;;;66.77;33.40;;;1.60;95.90;;;;;;5039022;28;20458;-80
2023/01/25 12:16:29;;;;;;;63.57;31.80;;;1.60;95.90;;;;;;5004604;28;20584;-81
2023/01/25 12:19:30;;;;;;;69.70;34.07;;;1.70;96.00;;;;;;5036316;28;20079;-79
2023/01/25 12:22:31;;;;;;;65.80;33.87;;;1.60;95.80;;;;;;5027560;28;20038;-79
2023/01/25 12:25:15;;;;;;;68.30;32.87;;;1.60;95.80;;;;;;5047646;28;20063;-79
2023/01/25 12:28:09;;;;;;;71.60;35.13;;;1.60;95.80;;;;;;5042390;28;20037;-80
2023/01/25 12:30:40;;;;;;;70.77;33.90;;;1.60;95.70;;;;;;5034085;28;20490;-79
2023/01/25 12:33:13;;;;;;;70.03;33.23;;;1.70;95.70;;;;;;5055490;28;20032;-79
2023/01/25 12:36:05;;;;;;;70.93;34.67;;;1.60;95.70;;;;;;5053101;28;20381;-80
2023/01/25 12:38:40;;;;;;;59.93;29.97;;;1.60;95.80;;;;;;5052133;28;20028;-80
2023/01/25 12:41:27;;;;;;;73.57;37.30;;;1.60;95.80;;;;;;5053777;28;20102;-79
2023/01/25 12:44:08;;;;;;;74.40;35.47;;;1.60;95.70;;;;;;5052612;28;20029;-80
2023/01/25 12:46:46;;;;;;;70.17;33.43;;;1.60;95.70;;;;;;5033288;28;20038;-80
2023/01/25 12:49:36;;;;;;;67.70;34.63;;;1.70;95.60;;;;;;5033986;28;20127;-79
2023/01/25 12:52:06;;;;;;;65.57;33.17;;;1.60;95.70;;;;;;5036463;28;20084;-80
2023/01/25 12:54:40;;;;;;;64.13;32.03;;;1.60;95.70;;;;;;5043118;28;20021;-80
2023/01/25 12:57:28;;;;;;;69.45;33.70;;;1.60;95.80;;;;;;5041557;28;20478;-80